sensor_id;sensor_type;location;lat;lon;timestamp;temperature;humidity
11577;DHT22;5844;51.496;6.788;2022-11-14T00:00:10;6.90;1.00
11577;DHT22;5844;51.496;6.788;2022-11-14T00:02:37;6.90;1.00
11577;DHT22;5844;51.496;6.788;2022-11-14T00:05:03;6.80;1.00
11577;DHT22;5844;51.496;6.788;2022-11-14T00:07:29;6.80;1.00
11577;DHT22;5844;51.496;6.788;2022-11-14T00:09:55;6.70;1.00
11577;DHT22;5844;51.496;6.788;2022-11-14T00:12:21;6.70;1.00
11577;DHT22;5844;51.496;6.788;2022-11-14T00:14:46;6.60;1.00
11577;DHT22;5844;51.496;6.788;2022-11-14T00:17:12;6.50;1.00
11577;DHT22;5844;51.496;6.788;2022-11-14T00:19:38;6.50;1.00
11577;DHT22;5844;51.496;6.788;2022-11-14T00:22:04;6.40;1.00
11577;DHT22;5844;51.496;6.788;2022-11-14T00:24:29;6.40;1.00
11577;DHT22;5844;51.496;6.788;2022-11-14T00:26:55;6.60;1.00
11577;DHT22;5844;51.496;6.788;2022-11-14T00:29:20;6.40;1.00
11577;DHT22;5844;51.496;6.788;2022-11-14T00:31:46;6.40;1.00
11577;DHT22;5844;51.496;6.788;2022-11-14T00:34:12;6.40;1.00
11577;DHT22;5844;51.496;6.788;2022-11-14T00:36:38;6.30;1.00
11577;DHT22;5844;51.496;6.788;2022-11-14T00:39:03;6.30;1.00
11577;DHT22;5844;51.496;6.788;2022-11-14T00:41:29;6.30;13.80
11577;DHT22;5844;51.496;6.788;2022-11-14T00:43:55;6.30;29.40
11577;DHT22;5844;51.496;6.788;2022-11-14T00:46:21;6.20;40.50
11577;DHT22;5844;51.496;6.788;2022-11-14T00:48:46;6.20;39.80
11577;DHT22;5844;51.496;6.788;2022-11-14T00:51:12;6.20;48.00
11577;DHT22;5844;51.496;6.788;2022-11-14T00:53:37;6.40;59.30
11577;DHT22;5844;51.496;6.788;2022-11-14T00:56:04;6.20;66.00
11577;DHT22;5844;51.496;6.788;2022-11-14T00:58:29;6.10;86.20
11577;DHT22;5844;51.496;6.788;2022-11-14T01:00:55;6.10;98.00
11577;DHT22;5844;51.496;6.788;2022-11-14T01:03:21;6.10;99.90
11577;DHT22;5844;51.496;6.788;2022-11-14T01:05:49;6.10;99.90
11577;DHT22;5844;51.496;6.788;2022-11-14T01:08:16;6.00;99.90
11577;DHT22;5844;51.496;6.788;2022-11-14T01:10:45;6.00;99.90
11577;DHT22;5844;51.496;6.788;2022-11-14T01:13:12;5.90;99.90
11577;DHT22;5844;51.496;6.788;2022-11-14T01:15:40;6.00;99.90
11577;DHT22;5844;51.496;6.788;2022-11-14T01:18:06;5.90;99.90
11577;DHT22;5844;51.496;6.788;2022-11-14T01:20:32;5.90;99.90
11577;DHT22;5844;51.496;6.788;2022-11-14T01:22:58;5.80;99.90
11577;DHT22;5844;51.496;6.788;2022-11-14T01:25:23;5.70;99.90
11577;DHT22;5844;51.496;6.788;2022-11-14T01:27:49;5.70;99.90
11577;DHT22;5844;51.496;6.788;2022-11-14T01:30:15;5.70;99.90
11577;DHT22;5844;51.496;6.788;2022-11-14T01:32:40;5.70;99.90
11577;DHT22;5844;51.496;6.788;2022-11-14T01:35:06;5.60;99.90
11577;DHT22;5844;51.496;6.788;2022-11-14T01:37:32;5.60;99.90
11577;DHT22;5844;51.496;6.788;2022-11-14T01:39:58;5.60;99.90
11577;DHT22;5844;51.496;6.788;2022-11-14T01:42:23;5.80;99.90
11577;DHT22;5844;51.496;6.788;2022-11-14T01:44:50;5.60;99.90
11577;DHT22;5844;51.496;6.788;2022-11-14T01:47:22;5.60;99.90
11577;DHT22;5844;51.496;6.788;2022-11-14T01:49:52;5.60;99.90
11577;DHT22;5844;51.496;6.788;2022-11-14T01:52:30;5.50;99.90
11577;DHT22;5844;51.496;6.788;2022-11-14T01:55:00;5.80;99.90
11577;DHT22;5844;51.496;6.788;2022-11-14T01:57:34;5.40;99.90
11577;DHT22;5844;51.496;6.788;2022-11-14T02:00:06;5.40;99.90
11577;DHT22;5844;51.496;6.788;2022-11-14T02:02:33;5.30;99.90
11577;DHT22;5844;51.496;6.788;2022-11-14T02:05:04;5.30;99.90
11577;DHT22;5844;51.496;6.788;2022-11-14T02:07:34;5.30;99.90
11577;DHT22;5844;51.496;6.788;2022-11-14T02:10:04;5.30;99.90
11577;DHT22;5844;51.496;6.788;2022-11-14T02:12:30;5.20;99.90
11577;DHT22;5844;51.496;6.788;2022-11-14T02:14:57;5.20;99.90
11577;DHT22;5844;51.496;6.788;2022-11-14T02:17:24;5.10;99.90
11577;DHT22;5844;51.496;6.788;2022-11-14T02:19:54;5.10;99.90
11577;DHT22;5844;51.496;6.788;2022-11-14T02:22:22;5.00;99.90
11577;DHT22;5844;51.496;6.788;2022-11-14T02:24:48;5.30;99.90
11577;DHT22;5844;51.496;6.788;2022-11-14T02:27:14;5.10;99.90
11577;DHT22;5844;51.496;6.788;2022-11-14T02:29:41;5.10;99.90
11577;DHT22;5844;51.496;6.788;2022-11-14T02:32:07;5.10;99.90
11577;DHT22;5844;51.496;6.788;2022-11-14T02:34:33;5.10;99.90
11577;DHT22;5844;51.496;6.788;2022-11-14T02:36:59;5.10;99.90
11577;DHT22;5844;51.496;6.788;2022-11-14T02:39:25;5.10;99.90
11577;DHT22;5844;51.496;6.788;2022-11-14T02:41:51;5.30;99.90
11577;DHT22;5844;51.496;6.788;2022-11-14T02:44:17;5.10;99.90
11577;DHT22;5844;51.496;6.788;2022-11-14T02:46:43;5.10;99.90
11577;DHT22;5844;51.496;6.788;2022-11-14T02:49:09;5.10;99.90
11577;DHT22;5844;51.496;6.788;2022-11-14T02:51:34;5.10;99.90
11577;DHT22;5844;51.496;6.788;2022-11-14T02:54:00;5.10;99.90
11577;DHT22;5844;51.496;6.788;2022-11-14T02:56:26;5.20;99.90
11577;DHT22;5844;51.496;6.788;2022-11-14T02:58:51;5.10;99.90
11577;DHT22;5844;51.496;6.788;2022-11-14T03:01:17;5.00;99.90
11577;DHT22;5844;51.496;6.788;2022-11-14T03:03:43;5.00;99.90
11577;DHT22;5844;51.496;6.788;2022-11-14T03:06:09;5.00;99.90
11577;DHT22;5844;51.496;6.788;2022-11-14T03:08:35;4.90;99.90
11577;DHT22;5844;51.496;6.788;2022-11-14T03:11:05;4.90;99.90
11577;DHT22;5844;51.496;6.788;2022-11-14T03:13:31;4.90;99.90
11577;DHT22;5844;51.496;6.788;2022-11-14T03:15:57;4.90;99.90
11577;DHT22;5844;51.496;6.788;2022-11-14T03:18:22;4.80;99.90
11577;DHT22;5844;51.496;6.788;2022-11-14T03:20:48;4.80;99.90
11577;DHT22;5844;51.496;6.788;2022-11-14T03:23:14;4.80;99.90
11577;DHT22;5844;51.496;6.788;2022-11-14T03:25:39;5.00;99.90
11577;DHT22;5844;51.496;6.788;2022-11-14T03:28:05;4.80;99.90
11577;DHT22;5844;51.496;6.788;2022-11-14T03:30:30;4.70;99.90
11577;DHT22;5844;51.496;6.788;2022-11-14T03:32:56;4.70;99.90
11577;DHT22;5844;51.496;6.788;2022-11-14T03:35:22;4.70;99.90
11577;DHT22;5844;51.496;6.788;2022-11-14T03:37:48;4.80;99.90
11577;DHT22;5844;51.496;6.788;2022-11-14T03:40:14;4.70;99.90
11577;DHT22;5844;51.496;6.788;2022-11-14T03:42:39;4.70;99.90
11577;DHT22;5844;51.496;6.788;2022-11-14T03:45:05;5.00;99.90
11577;DHT22;5844;51.496;6.788;2022-11-14T03:47:31;4.70;99.90
11577;DHT22;5844;51.496;6.788;2022-11-14T03:49:57;4.60;99.90
11577;DHT22;5844;51.496;6.788;2022-11-14T03:52:22;4.60;99.90
11577;DHT22;5844;51.496;6.788;2022-11-14T03:54:50;4.60;99.90
11577;DHT22;5844;51.496;6.788;2022-11-14T03:57:16;4.40;99.90
11577;DHT22;5844;51.496;6.788;2022-11-14T03:59:41;4.70;99.90
11577;DHT22;5844;51.496;6.788;2022-11-14T04:02:07;4.50;99.90
11577;DHT22;5844;51.496;6.788;2022-11-14T04:04:33;3.40;99.90
11577;DHT22;5844;51.496;6.788;2022-11-14T04:06:59;4.30;99.90
11577;DHT22;5844;51.496;6.788;2022-11-14T04:09:24;4.40;99.90
11577;DHT22;5844;51.496;6.788;2022-11-14T04:11:50;4.30;99.90
11577;DHT22;5844;51.496;6.788;2022-11-14T04:14:15;4.40;99.90
11577;DHT22;5844;51.496;6.788;2022-11-14T04:16:41;4.40;99.90
11577;DHT22;5844;51.496;6.788;2022-11-14T04:19:07;4.40;99.90
11577;DHT22;5844;51.496;6.788;2022-11-14T04:21:32;4.40;99.90
11577;DHT22;5844;51.496;6.788;2022-11-14T04:23:58;4.50;99.90
11577;DHT22;5844;51.496;6.788;2022-11-14T04:26:24;4.40;99.90
11577;DHT22;5844;51.496;6.788;2022-11-14T04:28:49;4.40;99.90
11577;DHT22;5844;51.496;6.788;2022-11-14T04:31:15;4.40;99.90
11577;DHT22;5844;51.496;6.788;2022-11-14T04:33:41;4.40;99.90
11577;DHT22;5844;51.496;6.788;2022-11-14T04:36:06;4.40;99.90
11577;DHT22;5844;51.496;6.788;2022-11-14T04:38:32;4.40;99.90
11577;DHT22;5844;51.496;6.788;2022-11-14T04:40:58;4.50;99.90
11577;DHT22;5844;51.496;6.788;2022-11-14T04:43:23;4.50;99.90
11577;DHT22;5844;51.496;6.788;2022-11-14T04:45:49;4.50;99.90
11577;DHT22;5844;51.496;6.788;2022-11-14T04:48:14;4.50;99.90
11577;DHT22;5844;51.496;6.788;2022-11-14T04:50:40;4.40;99.90
11577;DHT22;5844;51.496;6.788;2022-11-14T04:53:06;4.60;99.90
11577;DHT22;5844;51.496;6.788;2022-11-14T04:55:31;4.40;99.90
11577;DHT22;5844;51.496;6.788;2022-11-14T04:57:57;4.40;99.90
11577;DHT22;5844;51.496;6.788;2022-11-14T05:00:24;4.40;99.90
11577;DHT22;5844;51.496;6.788;2022-11-14T05:02:50;4.60;99.90
11577;DHT22;5844;51.496;6.788;2022-11-14T05:05:15;4.40;99.90
11577;DHT22;5844;51.496;6.788;2022-11-14T05:07:41;4.30;99.90
11577;DHT22;5844;51.496;6.788;2022-11-14T05:10:07;4.30;99.90
11577;DHT22;5844;51.496;6.788;2022-11-14T05:12:33;4.30;99.90
11577;DHT22;5844;51.496;6.788;2022-11-14T05:14:59;4.30;99.90
11577;DHT22;5844;51.496;6.788;2022-11-14T05:17:25;4.30;99.90
11577;DHT22;5844;51.496;6.788;2022-11-14T05:19:50;4.30;99.90
11577;DHT22;5844;51.496;6.788;2022-11-14T05:22:16;4.40;99.90
11577;DHT22;5844;51.496;6.788;2022-11-14T05:24:42;4.40;99.90
11577;DHT22;5844;51.496;6.788;2022-11-14T05:27:07;4.40;99.90
11577;DHT22;5844;51.496;6.788;2022-11-14T05:29:33;4.40;99.90
11577;DHT22;5844;51.496;6.788;2022-11-14T05:31:59;5.10;99.90
11577;DHT22;5844;51.496;6.788;2022-11-14T05:34:25;4.40;99.90
11577;DHT22;5844;51.496;6.788;2022-11-14T05:36:51;4.60;99.90
11577;DHT22;5844;51.496;6.788;2022-11-14T05:39:18;4.50;99.90
11577;DHT22;5844;51.496;6.788;2022-11-14T05:41:43;5.10;99.90
11577;DHT22;5844;51.496;6.788;2022-11-14T05:44:09;4.30;99.90
11577;DHT22;5844;51.496;6.788;2022-11-14T05:46:34;4.20;99.90
11577;DHT22;5844;51.496;6.788;2022-11-14T05:49:00;4.20;99.90
11577;DHT22;5844;51.496;6.788;2022-11-14T05:51:26;4.10;99.90
11577;DHT22;5844;51.496;6.788;2022-11-14T05:53:51;4.10;99.90
11577;DHT22;5844;51.496;6.788;2022-11-14T05:56:17;4.00;99.90
11577;DHT22;5844;51.496;6.788;2022-11-14T05:58:43;4.00;99.90
11577;DHT22;5844;51.496;6.788;2022-11-14T06:01:11;4.00;99.90
11577;DHT22;5844;51.496;6.788;2022-11-14T06:03:40;4.00;99.90
11577;DHT22;5844;51.496;6.788;2022-11-14T06:06:07;4.00;99.90
11577;DHT22;5844;51.496;6.788;2022-11-14T06:08:33;4.00;99.90
11577;DHT22;5844;51.496;6.788;2022-11-14T06:11:04;4.20;99.90
11577;DHT22;5844;51.496;6.788;2022-11-14T06:13:30;4.00;99.90
11577;DHT22;5844;51.496;6.788;2022-11-14T06:16:04;4.00;99.90
11577;DHT22;5844;51.496;6.788;2022-11-14T06:18:31;3.90;99.90
11577;DHT22;5844;51.496;6.788;2022-11-14T06:21:21;3.90;99.90
11577;DHT22;5844;51.496;6.788;2022-11-14T06:23:47;3.90;99.90
11577;DHT22;5844;51.496;6.788;2022-11-14T06:26:26;3.80;99.90
11577;DHT22;5844;51.496;6.788;2022-11-14T06:28:55;3.80;99.90
11577;DHT22;5844;51.496;6.788;2022-11-14T06:31:22;3.80;99.90
11577;DHT22;5844;51.496;6.788;2022-11-14T06:33:48;3.70;99.90
11577;DHT22;5844;51.496;6.788;2022-11-14T06:36:14;3.80;99.90
11577;DHT22;5844;51.496;6.788;2022-11-14T06:38:40;3.70;99.90
11577;DHT22;5844;51.496;6.788;2022-11-14T06:41:15;3.80;99.90
11577;DHT22;5844;51.496;6.788;2022-11-14T06:43:44;3.70;99.90
11577;DHT22;5844;51.496;6.788;2022-11-14T06:46:12;4.00;99.90
11577;DHT22;5844;51.496;6.788;2022-11-14T06:48:38;3.90;99.90
11577;DHT22;5844;51.496;6.788;2022-11-14T06:51:05;3.90;99.90
11577;DHT22;5844;51.496;6.788;2022-11-14T06:53:33;3.80;99.90
11577;DHT22;5844;51.496;6.788;2022-11-14T06:56:04;3.80;99.90
11577;DHT22;5844;51.496;6.788;2022-11-14T06:58:33;3.70;99.90
11577;DHT22;5844;51.496;6.788;2022-11-14T07:01:13;3.70;99.90
11577;DHT22;5844;51.496;6.788;2022-11-14T07:03:40;3.80;99.90
11577;DHT22;5844;51.496;6.788;2022-11-14T07:06:08;3.90;99.90
11577;DHT22;5844;51.496;6.788;2022-11-14T07:08:34;3.90;99.90
11577;DHT22;5844;51.496;6.788;2022-11-14T07:11:03;3.90;99.90
11577;DHT22;5844;51.496;6.788;2022-11-14T07:13:30;4.00;99.90
11577;DHT22;5844;51.496;6.788;2022-11-14T07:15:56;4.00;99.90
11577;DHT22;5844;51.496;6.788;2022-11-14T07:18:22;4.30;99.90
11577;DHT22;5844;51.496;6.788;2022-11-14T07:20:48;4.10;99.90
11577;DHT22;5844;51.496;6.788;2022-11-14T07:23:14;4.10;99.90
11577;DHT22;5844;51.496;6.788;2022-11-14T07:25:40;4.10;99.90
11577;DHT22;5844;51.496;6.788;2022-11-14T07:28:06;4.10;99.90
11577;DHT22;5844;51.496;6.788;2022-11-14T07:30:32;4.20;99.90
11577;DHT22;5844;51.496;6.788;2022-11-14T07:32:59;4.20;99.90
11577;DHT22;5844;51.496;6.788;2022-11-14T07:35:25;4.30;99.90
11577;DHT22;5844;51.496;6.788;2022-11-14T07:37:50;4.40;99.90
11577;DHT22;5844;51.496;6.788;2022-11-14T07:40:18;4.60;99.90
11577;DHT22;5844;51.496;6.788;2022-11-14T07:42:44;4.80;99.90
11577;DHT22;5844;51.496;6.788;2022-11-14T07:45:10;4.80;99.90
11577;DHT22;5844;51.496;6.788;2022-11-14T07:47:35;4.80;99.90
11577;DHT22;5844;51.496;6.788;2022-11-14T07:50:02;4.90;99.90
11577;DHT22;5844;51.496;6.788;2022-11-14T07:52:31;5.00;99.90
11577;DHT22;5844;51.496;6.788;2022-11-14T07:54:57;5.10;99.90
11577;DHT22;5844;51.496;6.788;2022-11-14T07:57:23;5.20;99.90
11577;DHT22;5844;51.496;6.788;2022-11-14T07:59:48;5.30;99.90
11577;DHT22;5844;51.496;6.788;2022-11-14T08:02:14;5.40;99.90
11577;DHT22;5844;51.496;6.788;2022-11-14T08:04:41;5.50;99.90
11577;DHT22;5844;51.496;6.788;2022-11-14T08:07:07;5.50;99.90
11577;DHT22;5844;51.496;6.788;2022-11-14T08:09:33;5.50;99.90
11577;DHT22;5844;51.496;6.788;2022-11-14T08:11:58;5.60;99.90
11577;DHT22;5844;51.496;6.788;2022-11-14T08:14:24;5.60;99.90
11577;DHT22;5844;51.496;6.788;2022-11-14T08:16:50;5.70;99.90
11577;DHT22;5844;51.496;6.788;2022-11-14T08:19:15;5.70;99.90
11577;DHT22;5844;51.496;6.788;2022-11-14T08:21:42;5.70;99.90
11577;DHT22;5844;51.496;6.788;2022-11-14T08:24:08;5.80;99.90
11577;DHT22;5844;51.496;6.788;2022-11-14T08:26:33;5.80;99.90
11577;DHT22;5844;51.496;6.788;2022-11-14T08:28:59;6.00;99.90
11577;DHT22;5844;51.496;6.788;2022-11-14T08:31:25;6.00;99.90
11577;DHT22;5844;51.496;6.788;2022-11-14T08:33:51;6.20;99.90
11577;DHT22;5844;51.496;6.788;2022-11-14T08:36:17;6.30;99.90
11577;DHT22;5844;51.496;6.788;2022-11-14T08:38:43;6.50;99.90
11577;DHT22;5844;51.496;6.788;2022-11-14T08:41:09;6.60;99.90
11577;DHT22;5844;51.496;6.788;2022-11-14T08:43:35;6.80;99.90
11577;DHT22;5844;51.496;6.788;2022-11-14T08:46:02;7.00;99.90
11577;DHT22;5844;51.496;6.788;2022-11-14T08:48:29;7.20;99.90
11577;DHT22;5844;51.496;6.788;2022-11-14T08:50:55;7.40;99.90
11577;DHT22;5844;51.496;6.788;2022-11-14T08:53:21;7.50;99.90
11577;DHT22;5844;51.496;6.788;2022-11-14T08:55:47;7.70;99.90
11577;DHT22;5844;51.496;6.788;2022-11-14T08:58:13;7.90;99.90
11577;DHT22;5844;51.496;6.788;2022-11-14T09:00:39;8.00;99.90
11577;DHT22;5844;51.496;6.788;2022-11-14T09:03:11;8.10;99.90
11577;DHT22;5844;51.496;6.788;2022-11-14T09:05:38;8.30;99.90
11577;DHT22;5844;51.496;6.788;2022-11-14T09:08:04;8.40;99.90
11577;DHT22;5844;51.496;6.788;2022-11-14T09:10:30;8.60;99.90
11577;DHT22;5844;51.496;6.788;2022-11-14T09:13:00;8.70;99.90
11577;DHT22;5844;51.496;6.788;2022-11-14T09:15:29;8.80;99.90
11577;DHT22;5844;51.496;6.788;2022-11-14T09:17:56;8.90;99.90
11577;DHT22;5844;51.496;6.788;2022-11-14T09:20:23;9.00;99.90
11577;DHT22;5844;51.496;6.788;2022-11-14T09:22:49;9.20;99.90
11577;DHT22;5844;51.496;6.788;2022-11-14T09:25:19;9.40;99.90
11577;DHT22;5844;51.496;6.788;2022-11-14T09:27:45;9.70;99.90
11577;DHT22;5844;51.496;6.788;2022-11-14T09:30:11;9.90;99.90
11577;DHT22;5844;51.496;6.788;2022-11-14T09:32:37;9.80;99.90
11577;DHT22;5844;51.496;6.788;2022-11-14T09:35:03;9.80;26.80
11577;DHT22;5844;51.496;6.788;2022-11-14T09:37:28;9.70;1.00
11577;DHT22;5844;51.496;6.788;2022-11-14T09:39:54;9.60;1.00
11577;DHT22;5844;51.496;6.788;2022-11-14T09:44:52;9.60;1.00
11577;DHT22;5844;51.496;6.788;2022-11-14T09:47:23;9.60;1.00
11577;DHT22;5844;51.496;6.788;2022-11-14T09:49:55;9.50;1.00
11577;DHT22;5844;51.496;6.788;2022-11-14T09:52:31;9.40;1.00
11577;DHT22;5844;51.496;6.788;2022-11-14T09:55:20;9.40;1.00
11577;DHT22;5844;51.496;6.788;2022-11-14T09:57:47;9.50;1.00
11577;DHT22;5844;51.496;6.788;2022-11-14T10:00:18;9.60;1.00
11577;DHT22;5844;51.496;6.788;2022-11-14T10:03:21;9.50;1.00
11577;DHT22;5844;51.496;6.788;2022-11-14T10:08:43;9.50;1.00
11577;DHT22;5844;51.496;6.788;2022-11-14T10:11:22;9.60;1.00
11577;DHT22;5844;51.496;6.788;2022-11-14T10:13:59;9.60;1.00
11577;DHT22;5844;51.496;6.788;2022-11-14T10:24:55;9.60;1.00
11577;DHT22;5844;51.496;6.788;2022-11-14T10:27:37;9.50;1.00
11577;DHT22;5844;51.496;6.788;2022-11-14T10:30:12;9.50;1.00
11577;DHT22;5844;51.496;6.788;2022-11-14T10:35:17;9.40;1.00
11577;DHT22;5844;51.496;6.788;2022-11-14T10:45:43;9.30;1.00
11577;DHT22;5844;51.496;6.788;2022-11-14T10:48:13;9.40;1.00
11577;DHT22;5844;51.496;6.788;2022-11-14T10:50:48;9.10;1.00
11577;DHT22;5844;51.496;6.788;2022-11-14T10:55:57;9.10;1.00
11577;DHT22;5844;51.496;6.788;2022-11-14T10:58:23;7.10;1.00
11577;DHT22;5844;51.496;6.788;2022-11-14T11:00:49;9.20;1.00
11577;DHT22;5844;51.496;6.788;2022-11-14T11:03:14;9.10;1.00
11577;DHT22;5844;51.496;6.788;2022-11-14T11:05:51;9.20;1.00
11577;DHT22;5844;51.496;6.788;2022-11-14T11:08:21;9.20;1.00
11577;DHT22;5844;51.496;6.788;2022-11-14T11:11:11;9.20;1.00
11577;DHT22;5844;51.496;6.788;2022-11-14T11:14:00;9.30;1.00
11577;DHT22;5844;51.496;6.788;2022-11-14T11:16:27;9.50;1.00
11577;DHT22;5844;51.496;6.788;2022-11-14T11:18:53;9.50;1.00
11577;DHT22;5844;51.496;6.788;2022-11-14T11:21:21;9.70;1.00
11577;DHT22;5844;51.496;6.788;2022-11-14T11:23:51;9.60;1.00
11577;DHT22;5844;51.496;6.788;2022-11-14T11:26:29;9.60;1.00
11577;DHT22;5844;51.496;6.788;2022-11-14T11:29:14;9.70;1.00
11577;DHT22;5844;51.496;6.788;2022-11-14T11:31:54;9.80;1.00
11577;DHT22;5844;51.496;6.788;2022-11-14T11:34:28;9.90;1.00
11577;DHT22;5844;51.496;6.788;2022-11-14T11:37:14;10.10;1.00
11577;DHT22;5844;51.496;6.788;2022-11-14T11:39:47;10.20;1.00
11577;DHT22;5844;51.496;6.788;2022-11-14T11:42:28;10.30;1.00
11577;DHT22;5844;51.496;6.788;2022-11-14T11:44:59;10.40;1.00
11577;DHT22;5844;51.496;6.788;2022-11-14T11:47:28;10.40;1.00
11577;DHT22;5844;51.496;6.788;2022-11-14T11:49:57;10.50;1.00
11577;DHT22;5844;51.496;6.788;2022-11-14T11:52:36;10.70;1.00
11577;DHT22;5844;51.496;6.788;2022-11-14T11:57:41;11.90;1.00
11577;DHT22;5844;51.496;6.788;2022-11-14T12:00:18;13.00;99.90
11577;DHT22;5844;51.496;6.788;2022-11-14T12:02:49;13.30;99.90
11577;DHT22;5844;51.496;6.788;2022-11-14T12:05:50;12.80;99.90
11577;DHT22;5844;51.496;6.788;2022-11-14T12:08:51;12.50;1.00
11577;DHT22;5844;51.496;6.788;2022-11-14T12:11:20;12.60;1.00
11577;DHT22;5844;51.496;6.788;2022-11-14T12:19:40;13.90;99.90
11577;DHT22;5844;51.496;6.788;2022-11-14T12:28:14;12.70;1.00
11577;DHT22;5844;51.496;6.788;2022-11-14T12:30:47;12.70;99.90
11577;DHT22;5844;51.496;6.788;2022-11-14T12:33:27;12.60;99.90
11577;DHT22;5844;51.496;6.788;2022-11-14T12:36:02;12.40;99.90
11577;DHT22;5844;51.496;6.788;2022-11-14T12:38:44;12.30;99.90
11577;DHT22;5844;51.496;6.788;2022-11-14T12:41:11;12.40;99.90
11577;DHT22;5844;51.496;6.788;2022-11-14T12:43:45;12.30;99.90
11577;DHT22;5844;51.496;6.788;2022-11-14T12:46:12;12.20;99.90
11577;DHT22;5844;51.496;6.788;2022-11-14T12:48:43;11.80;99.90
11577;DHT22;5844;51.496;6.788;2022-11-14T12:53:50;11.70;99.90
11577;DHT22;5844;51.496;6.788;2022-11-14T12:56:36;11.60;99.90
11577;DHT22;5844;51.496;6.788;2022-11-14T13:27:27;10.90;99.90
11577;DHT22;5844;51.496;6.788;2022-11-14T13:29:54;10.80;99.90
11577;DHT22;5844;51.496;6.788;2022-11-14T13:35:19;10.80;1.00
11577;DHT22;5844;51.496;6.788;2022-11-14T13:43:55;10.80;1.00
11577;DHT22;5844;51.496;6.788;2022-11-14T13:51:56;10.80;1.00
11577;DHT22;5844;51.496;6.788;2022-11-14T13:54:22;10.70;99.90
11577;DHT22;5844;51.496;6.788;2022-11-14T13:57:06;10.70;99.90
11577;DHT22;5844;51.496;6.788;2022-11-14T14:00:00;10.60;99.90
11577;DHT22;5844;51.496;6.788;2022-11-14T14:05:38;10.60;1.00
11577;DHT22;5844;51.496;6.788;2022-11-14T14:08:18;10.60;1.00
11577;DHT22;5844;51.496;6.788;2022-11-14T14:11:01;10.60;1.00
11577;DHT22;5844;51.496;6.788;2022-11-14T14:16:48;10.60;1.00
11577;DHT22;5844;51.496;6.788;2022-11-14T14:22:03;10.60;1.00
11577;DHT22;5844;51.496;6.788;2022-11-14T14:27:36;10.50;1.00
11577;DHT22;5844;51.496;6.788;2022-11-14T14:30:10;10.50;1.00
11577;DHT22;5844;51.496;6.788;2022-11-14T14:32:37;10.50;1.00
11577;DHT22;5844;51.496;6.788;2022-11-14T14:35:29;10.50;1.00
11577;DHT22;5844;51.496;6.788;2022-11-14T14:37:56;10.50;1.00
11577;DHT22;5844;51.496;6.788;2022-11-14T14:40:31;10.50;1.00
11577;DHT22;5844;51.496;6.788;2022-11-14T14:43:02;10.50;1.00
11577;DHT22;5844;51.496;6.788;2022-11-14T14:45:31;10.50;1.00
11577;DHT22;5844;51.496;6.788;2022-11-14T14:48:13;10.50;1.00
11577;DHT22;5844;51.496;6.788;2022-11-14T14:50:41;10.50;1.00
11577;DHT22;5844;51.496;6.788;2022-11-14T14:53:27;10.50;1.00
11577;DHT22;5844;51.496;6.788;2022-11-14T14:55:59;10.50;1.00
11577;DHT22;5844;51.496;6.788;2022-11-14T14:58:28;10.40;1.00
11577;DHT22;5844;51.496;6.788;2022-11-14T15:01:06;10.40;1.00
11577;DHT22;5844;51.496;6.788;2022-11-14T15:03:38;10.40;1.00
11577;DHT22;5844;51.496;6.788;2022-11-14T15:06:32;10.40;1.00
11577;DHT22;5844;51.496;6.788;2022-11-14T15:09:09;10.40;1.00
11577;DHT22;5844;51.496;6.788;2022-11-14T15:11:38;10.40;1.00
11577;DHT22;5844;51.496;6.788;2022-11-14T15:14:06;10.40;1.00
11577;DHT22;5844;51.496;6.788;2022-11-14T15:16:35;10.30;1.00
11577;DHT22;5844;51.496;6.788;2022-11-14T15:19:01;10.40;1.00
11577;DHT22;5844;51.496;6.788;2022-11-14T15:21:28;10.30;1.00
11577;DHT22;5844;51.496;6.788;2022-11-14T15:24:18;10.30;1.00
11577;DHT22;5844;51.496;6.788;2022-11-14T15:26:45;10.30;1.00
11577;DHT22;5844;51.496;6.788;2022-11-14T15:29:17;10.20;1.00
11577;DHT22;5844;51.496;6.788;2022-11-14T15:31:58;10.20;1.00
11577;DHT22;5844;51.496;6.788;2022-11-14T15:34:36;10.20;1.00
11577;DHT22;5844;51.496;6.788;2022-11-14T15:39:39;10.20;1.00
11577;DHT22;5844;51.496;6.788;2022-11-14T15:42:18;10.30;1.00
11577;DHT22;5844;51.496;6.788;2022-11-14T15:44:44;10.20;1.00
11577;DHT22;5844;51.496;6.788;2022-11-14T15:47:24;10.20;1.00
11577;DHT22;5844;51.496;6.788;2022-11-14T15:52:46;10.20;1.00
11577;DHT22;5844;51.496;6.788;2022-11-14T15:55:18;10.10;1.00
11577;DHT22;5844;51.496;6.788;2022-11-14T15:57:43;10.10;1.00
11577;DHT22;5844;51.496;6.788;2022-11-14T16:00:13;10.10;1.00
11577;DHT22;5844;51.496;6.788;2022-11-14T16:02:45;10.10;1.00
11577;DHT22;5844;51.496;6.788;2022-11-14T16:05:13;10.00;1.00
11577;DHT22;5844;51.496;6.788;2022-11-14T16:07:39;10.10;1.00
11577;DHT22;5844;51.496;6.788;2022-11-14T16:10:21;10.10;1.00
11577;DHT22;5844;51.496;6.788;2022-11-14T16:12:48;10.10;1.00
11577;DHT22;5844;51.496;6.788;2022-11-14T16:15:14;10.10;1.00
11577;DHT22;5844;51.496;6.788;2022-11-14T16:17:42;10.10;1.00
11577;DHT22;5844;51.496;6.788;2022-11-14T16:20:19;10.10;1.00
11577;DHT22;5844;51.496;6.788;2022-11-14T16:22:47;10.00;1.00
11577;DHT22;5844;51.496;6.788;2022-11-14T16:25:18;10.10;1.00
11577;DHT22;5844;51.496;6.788;2022-11-14T16:27:44;10.00;1.00
11577;DHT22;5844;51.496;6.788;2022-11-14T16:30:15;10.00;1.00
11577;DHT22;5844;51.496;6.788;2022-11-14T16:32:42;10.00;1.00
11577;DHT22;5844;51.496;6.788;2022-11-14T16:35:12;10.10;1.00
11577;DHT22;5844;51.496;6.788;2022-11-14T16:37:38;10.00;1.00
11577;DHT22;5844;51.496;6.788;2022-11-14T16:40:06;10.00;1.00
11577;DHT22;5844;51.496;6.788;2022-11-14T16:42:32;9.90;1.00
11577;DHT22;5844;51.496;6.788;2022-11-14T16:45:00;9.90;1.00
11577;DHT22;5844;51.496;6.788;2022-11-14T16:47:27;9.90;1.00
11577;DHT22;5844;51.496;6.788;2022-11-14T16:49:53;9.90;1.00
11577;DHT22;5844;51.496;6.788;2022-11-14T16:52:19;9.90;1.00
11577;DHT22;5844;51.496;6.788;2022-11-14T16:54:45;9.90;1.00
11577;DHT22;5844;51.496;6.788;2022-11-14T16:57:11;9.90;1.00
11577;DHT22;5844;51.496;6.788;2022-11-14T16:59:37;9.90;1.00
11577;DHT22;5844;51.496;6.788;2022-11-14T17:02:03;9.90;1.00
11577;DHT22;5844;51.496;6.788;2022-11-14T17:04:29;9.90;1.00
11577;DHT22;5844;51.496;6.788;2022-11-14T17:06:55;9.90;1.00
11577;DHT22;5844;51.496;6.788;2022-11-14T17:09:20;9.90;1.00
11577;DHT22;5844;51.496;6.788;2022-11-14T17:11:46;9.90;1.00
11577;DHT22;5844;51.496;6.788;2022-11-14T17:14:12;9.90;1.00
11577;DHT22;5844;51.496;6.788;2022-11-14T17:16:38;9.90;1.00
11577;DHT22;5844;51.496;6.788;2022-11-14T17:19:03;9.80;1.00
11577;DHT22;5844;51.496;6.788;2022-11-14T17:21:29;9.90;1.00
11577;DHT22;5844;51.496;6.788;2022-11-14T17:23:56;9.90;1.00
11577;DHT22;5844;51.496;6.788;2022-11-14T17:26:24;9.80;1.00
11577;DHT22;5844;51.496;6.788;2022-11-14T17:28:50;9.80;1.00
11577;DHT22;5844;51.496;6.788;2022-11-14T17:31:16;9.80;1.00
11577;DHT22;5844;51.496;6.788;2022-11-14T17:33:42;9.80;1.00
11577;DHT22;5844;51.496;6.788;2022-11-14T17:36:09;9.80;1.00
11577;DHT22;5844;51.496;6.788;2022-11-14T17:38:36;9.80;1.00
11577;DHT22;5844;51.496;6.788;2022-11-14T17:41:02;9.80;1.00
11577;DHT22;5844;51.496;6.788;2022-11-14T17:43:32;9.80;1.00
11577;DHT22;5844;51.496;6.788;2022-11-14T17:45:58;9.80;1.00
11577;DHT22;5844;51.496;6.788;2022-11-14T17:48:24;9.70;1.00
11577;DHT22;5844;51.496;6.788;2022-11-14T17:50:50;9.70;1.00
11577;DHT22;5844;51.496;6.788;2022-11-14T17:53:15;9.70;1.00
11577;DHT22;5844;51.496;6.788;2022-11-14T17:55:41;9.70;1.00
11577;DHT22;5844;51.496;6.788;2022-11-14T17:58:07;9.70;1.00